createdAt,value
2017-03-11T00:00:48.721Z,5.96
2017-03-11T00:01:57.719Z,5.96
2017-03-11T00:03:06.771Z,5.91
2017-03-11T00:04:15.794Z,5.92
2017-03-11T00:05:25.217Z,5.92
2017-03-11T00:06:33.823Z,5.98
2017-03-11T00:07:43.639Z,5.92
2017-03-11T00:08:52.640Z,5.92
2017-03-11T00:10:01.260Z,5.92
2017-03-11T00:11:10.577Z,5.92
2017-03-11T00:12:19.992Z,5.92
2017-03-11T00:13:28.600Z,5.96
2017-03-11T00:14:37.236Z,5.95
2017-03-11T00:15:46.506Z,5.92
2017-03-11T00:16:56.150Z,5.89
2017-03-11T00:18:05.201Z,5.89
2017-03-11T00:19:13.830Z,6
2017-03-11T00:20:22.847Z,5.99
2017-03-11T00:21:31.865Z,6.03
2017-03-11T00:22:40.872Z,6.03
2017-03-11T00:23:49.475Z,6.09
2017-03-11T00:24:58.478Z,6.17
2017-03-11T00:26:07.731Z,6.15
2017-03-11T00:27:17.143Z,6.28
2017-03-11T00:28:26.152Z,6.25
2017-03-11T00:29:36.173Z,6.33
2017-03-11T00:30:46.020Z,6.25
2017-03-11T00:31:55.026Z,6.39
2017-03-11T00:33:04.538Z,6.37
2017-03-11T00:34:13.546Z,6.42
2017-03-11T00:35:22.952Z,6.37
2017-03-11T00:36:32.203Z,6.37
2017-03-11T00:37:40.809Z,6.51
2017-03-11T00:38:49.421Z,6.37
2017-03-11T00:39:58.476Z,6.57
2017-03-11T00:41:07.871Z,6.61
2017-03-11T00:42:16.504Z,6.54
2017-03-11T00:43:25.514Z,6.58
2017-03-11T00:44:34.180Z,6.57
2017-03-11T00:45:43.214Z,6.58
2017-03-11T00:46:52.223Z,6.6
2017-03-11T00:48:01.974Z,6.64
2017-03-11T00:49:10.569Z,6.67
2017-03-11T00:50:19.977Z,6.61
2017-03-11T00:51:29.785Z,6.6
2017-03-11T00:52:38.795Z,6.57
2017-03-11T00:53:47.803Z,6.58
2017-03-11T00:54:56.807Z,6.6
2017-03-11T00:56:05.798Z,6.6
2017-03-11T00:57:14.792Z,6.62
2017-03-11T00:58:24.612Z,6.64
2017-03-11T00:59:33.226Z,6.57
2017-03-11T01:00:41.849Z,6.6
2017-03-11T01:01:51.270Z,6.65
2017-03-11T01:02:59.880Z,6.67
2017-03-11T01:04:08.881Z,6.67
2017-03-11T01:05:17.881Z,6.65
2017-03-11T01:06:27.133Z,6.65
2017-03-11T01:07:36.383Z,6.57
2017-03-11T01:08:44.981Z,6.6
2017-03-11T01:09:53.608Z,6.58
2017-03-11T01:11:02.402Z,6.58
2017-03-11T01:12:11.795Z,6.55
2017-03-11T01:13:20.805Z,6.61
2017-03-11T01:14:30.225Z,6.55
2017-03-11T01:15:40.027Z,6.57
2017-03-11T01:16:49.030Z,6.62
2017-03-11T01:17:57.632Z,6.49
2017-03-11T01:19:06.641Z,6.51
2017-03-11T01:20:15.250Z,6.42
2017-03-11T01:21:24.267Z,6.4
2017-03-11T01:22:32.861Z,6.34
2017-03-11T01:23:41.449Z,6.4
2017-03-11T01:24:50.854Z,6.37
2017-03-11T01:25:59.981Z,6.39
2017-03-11T01:27:08.675Z,6.37
2017-03-11T01:28:17.681Z,6.44
2017-03-11T01:29:27.095Z,6.51
2017-03-11T01:30:36.764Z,6.49
2017-03-11T01:31:45.375Z,6.55
2017-03-11T01:32:54.785Z,6.62
2017-03-11T01:34:04.625Z,6.57
2017-03-11T01:35:14.028Z,6.6
2017-03-11T01:36:23.026Z,6.57
2017-03-11T01:37:32.040Z,6.58
2017-03-11T01:38:40.688Z,6.57
2017-03-11T01:39:50.357Z,6.62
2017-03-11T01:40:58.949Z,6.58
2017-03-11T01:42:07.939Z,6.64
2017-03-11T01:43:16.564Z,6.64
2017-03-11T01:44:25.556Z,6.78
2017-03-11T01:45:34.154Z,6.75
2017-03-11T01:46:43.555Z,6.76
2017-03-11T01:47:52.281Z,6.72
2017-03-11T01:49:01.276Z,6.76
2017-03-11T01:50:10.866Z,6.7
2017-03-11T01:51:19.874Z,6.75
2017-03-11T01:52:29.280Z,6.75
2017-03-11T01:53:38.280Z,6.7
2017-03-11T01:54:46.902Z,6.78
2017-03-11T01:55:55.517Z,6.76
2017-03-11T01:57:04.515Z,6.73
2017-03-11T01:58:13.129Z,6.75
2017-03-11T01:59:21.725Z,6.75
2017-03-11T02:00:31.148Z,6.83
2017-03-11T02:01:40.142Z,6.9
2017-03-11T02:02:48.745Z,6.88
2017-03-11T02:03:57.744Z,6.82
2017-03-11T02:05:06.759Z,6.82
2017-03-11T02:06:16.428Z,6.79
2017-03-11T02:07:25.023Z,6.83
2017-03-11T02:08:33.620Z,6.79
2017-03-11T02:09:42.610Z,6.94
2017-03-11T02:10:51.604Z,6.82
2017-03-11T02:12:01.409Z,6.86
2017-03-11T02:13:10.809Z,6.91
2017-03-11T02:14:19.423Z,6.85
2017-03-11T02:15:28.446Z,6.91
2017-03-11T02:16:37.128Z,6.91
2017-03-11T02:17:46.238Z,6.9
2017-03-11T02:18:55.280Z,6.94
2017-03-11T02:20:05.377Z,6.95
2017-03-11T02:21:14.202Z,6.97
2017-03-11T02:22:23.207Z,7
2017-03-11T02:23:32.221Z,7.01
2017-03-11T02:24:41.238Z,6.97
2017-03-11T02:25:50.228Z,7
2017-03-11T02:26:59.923Z,7.05
2017-03-11T02:28:08.990Z,6.97
2017-03-11T02:29:18.402Z,7.01
2017-03-11T02:30:27.019Z,7.01
2017-03-11T02:31:35.621Z,6.95
2017-03-11T02:32:44.223Z,6.97
2017-03-11T02:33:53.662Z,6.95
2017-03-11T02:35:03.054Z,6.94
2017-03-11T02:36:11.648Z,6.94
2017-03-11T02:37:20.642Z,6.98
2017-03-11T02:38:29.639Z,7.04
2017-03-11T02:39:38.642Z,6.93
2017-03-11T02:40:47.256Z,6.97
2017-03-11T02:41:56.255Z,6.95
2017-03-11T02:43:05.679Z,7.01
2017-03-11T02:44:14.684Z,7
2017-03-11T02:45:24.077Z,6.97
2017-03-11T02:46:33.472Z,7.01
2017-03-11T02:47:42.915Z,6.98
2017-03-11T02:48:51.918Z,7.04
2017-03-11T02:50:00.918Z,6.94
2017-03-11T02:51:09.915Z,6.94
2017-03-11T02:52:19.333Z,6.95
2017-03-11T02:53:28.340Z,6.95
2017-03-11T02:54:37.397Z,7.04
2017-03-11T02:55:46.012Z,7.03
2017-03-11T02:56:55.009Z,6.93
2017-03-11T02:58:03.811Z,7.03
2017-03-11T02:59:12.822Z,6.9
2017-03-11T03:00:22.619Z,6.97
2017-03-11T03:01:32.034Z,6.94
2017-03-11T03:02:41.033Z,7.01
2017-03-11T03:03:50.040Z,6.97
2017-03-11T03:04:58.666Z,7.01
2017-03-11T03:06:07.692Z,6.93
2017-03-11T03:07:16.756Z,6.98
2017-03-11T03:08:26.165Z,7.01
2017-03-11T03:09:35.210Z,6.97
2017-03-11T03:10:43.837Z,6.95
2017-03-11T03:11:53.251Z,7.01
2017-03-11T03:13:02.660Z,6.93
2017-03-11T03:14:11.251Z,7.04
2017-03-11T03:15:20.249Z,7.05
2017-03-11T03:16:28.851Z,7.04
2017-03-11T03:17:37.443Z,7.05
2017-03-11T03:18:46.047Z,7.03
2017-03-11T03:19:55.452Z,7.01
2017-03-11T03:21:04.074Z,7.01
2017-03-11T03:22:13.477Z,7.08
2017-03-11T03:23:22.087Z,7.03
2017-03-11T03:24:31.081Z,7.03
2017-03-11T03:25:39.695Z,7
2017-03-11T03:26:49.118Z,7.13
2017-03-11T03:27:58.144Z,7.08
2017-03-11T03:29:07.156Z,7.08
2017-03-11T03:30:15.771Z,7.15
2017-03-11T03:31:24.795Z,7.13
2017-03-11T03:32:33.384Z,7.05
2017-03-11T03:33:42.381Z,7.08
2017-03-11T03:34:51.804Z,7.11
2017-03-11T03:36:00.417Z,7.05
2017-03-11T03:37:09.416Z,7.05
2017-03-11T03:38:18.038Z,7.09
2017-03-11T03:39:27.055Z,7
2017-03-11T03:40:36.067Z,7.19
2017-03-11T03:41:45.085Z,7.04
2017-03-11T03:42:54.087Z,7.03
2017-03-11T03:44:03.486Z,7
2017-03-11T03:45:12.091Z,7.08
2017-03-11T03:46:21.485Z,7.12
2017-03-11T03:47:30.880Z,7.01
2017-03-11T03:48:39.502Z,7.13
2017-03-11T03:49:48.911Z,7.11
2017-03-11T03:50:57.907Z,7.03
2017-03-11T03:52:06.529Z,6.98
2017-03-11T03:53:15.522Z,7.11
2017-03-11T03:54:24.125Z,7.04
2017-03-11T03:55:33.517Z,7.05
2017-03-11T03:56:42.523Z,7.04
2017-03-11T03:57:51.915Z,7.03
2017-03-11T03:59:01.322Z,7.15
2017-03-11T04:00:09.927Z,7.01
2017-03-11T04:01:18.519Z,7.04
2017-03-11T04:02:27.164Z,7.03
2017-03-11T04:03:36.182Z,7.04
2017-03-11T04:04:45.583Z,7.08
2017-03-11T04:05:54.480Z,6.98
2017-03-11T04:07:03.889Z,7.03
2017-03-11T04:08:12.917Z,7.08
2017-03-11T04:09:21.545Z,6.98
2017-03-11T04:10:30.156Z,7.03
2017-03-11T04:11:39.556Z,7.09
2017-03-11T04:12:48.163Z,7.01
2017-03-11T04:13:56.780Z,6.93
2017-03-11T04:15:06.176Z,6.93
2017-03-11T04:16:14.773Z,6.95
2017-03-11T04:17:23.778Z,6.94
2017-03-11T04:18:32.774Z,6.97
2017-03-11T04:19:41.373Z,6.94
2017-03-11T04:20:50.399Z,6.95
2017-03-11T04:21:59.013Z,6.94
2017-03-11T04:23:08.012Z,6.83
2017-03-11T04:24:17.024Z,6.85
2017-03-11T04:25:26.817Z,6.91
2017-03-11T04:26:35.815Z,6.94
2017-03-11T04:27:44.818Z,6.86
2017-03-11T04:28:53.418Z,6.82
2017-03-11T04:30:02.437Z,6.85
2017-03-11T04:31:11.849Z,6.79
2017-03-11T04:32:20.841Z,6.82
2017-03-11T04:33:29.839Z,6.83
2017-03-11T04:34:39.245Z,6.76
2017-03-11T04:35:47.853Z,6.72
2017-03-11T04:36:57.494Z,6.85
2017-03-11T04:38:06.893Z,6.8
2017-03-11T04:39:15.901Z,6.76
2017-03-11T04:40:24.901Z,6.79
2017-03-11T04:41:34.701Z,6.76
2017-03-11T04:42:44.094Z,6.78
2017-03-11T04:43:53.504Z,6.79
2017-03-11T04:45:02.524Z,6.65
2017-03-11T04:46:11.532Z,6.75
2017-03-11T04:47:20.953Z,6.79
2017-03-11T04:48:29.566Z,6.7
2017-03-11T04:49:38.980Z,6.76
2017-03-11T04:50:47.593Z,6.73
2017-03-11T04:51:56.997Z,6.68
2017-03-11T04:53:06.004Z,6.76
2017-03-11T04:54:14.605Z,6.75
2017-03-11T04:55:23.211Z,6.75
2017-03-11T04:56:32.201Z,6.73
2017-03-11T04:57:40.830Z,6.7
2017-03-11T04:58:49.833Z,6.61
2017-03-11T04:59:59.222Z,6.58
2017-03-11T05:01:08.225Z,6.62
2017-03-11T05:02:17.228Z,6.58
2017-03-11T05:03:26.646Z,6.61
2017-03-11T05:04:35.237Z,6.54
2017-03-11T05:05:44.632Z,6.61
2017-03-11T05:06:53.630Z,6.52
2017-03-11T05:08:02.224Z,6.54
2017-03-11T05:09:10.852Z,6.46
2017-03-11T05:10:19.448Z,6.4
2017-03-11T05:11:28.864Z,6.43
2017-03-11T05:12:37.497Z,6.39
2017-03-11T05:13:46.910Z,6.34
2017-03-11T05:14:55.540Z,6.26
2017-03-11T05:16:04.189Z,6.34
2017-03-11T05:17:13.184Z,6.28
2017-03-11T05:18:21.779Z,6.25
2017-03-11T05:19:30.770Z,6.26
2017-03-11T05:20:39.769Z,6.24
2017-03-11T05:21:48.403Z,6.21
2017-03-11T05:22:57.844Z,6.17
2017-03-11T05:24:07.234Z,6.1
2017-03-11T05:25:15.832Z,6.14
2017-03-11T05:26:24.830Z,6.18
2017-03-11T05:27:34.219Z,6.21
2017-03-11T05:28:43.612Z,6.02
2017-03-11T05:29:52.249Z,6.09
2017-03-11T05:31:00.842Z,6.05
2017-03-11T05:32:09.842Z,5.96
2017-03-11T05:33:19.629Z,5.99
2017-03-11T05:34:28.630Z,5.91
2017-03-11T05:35:37.633Z,5.96
2017-03-11T05:36:46.229Z,5.89
2017-03-11T05:37:54.824Z,5.95
2017-03-11T05:39:04.248Z,5.95
2017-03-11T05:40:13.520Z,5.98
2017-03-11T05:41:22.141Z,5.98
2017-03-11T05:42:31.150Z,5.8
2017-03-11T05:43:40.582Z,5.8
2017-03-11T05:44:49.616Z,5.78
2017-03-11T05:45:58.622Z,5.77
2017-03-11T05:47:07.237Z,5.84
2017-03-11T05:48:16.627Z,5.75
2017-03-11T05:49:25.686Z,5.81
2017-03-11T05:50:34.301Z,5.78
2017-03-11T05:51:44.098Z,5.69
2017-03-11T05:52:53.118Z,5.69
2017-03-11T05:54:02.535Z,5.66
2017-03-11T05:55:11.561Z,5.67
2017-03-11T05:56:21.286Z,5.73
2017-03-11T05:57:30.316Z,5.62
2017-03-11T05:58:39.380Z,5.64
2017-03-11T05:59:49.597Z,5.63
2017-03-11T06:00:58.191Z,5.63
2017-03-11T06:02:07.189Z,5.64
2017-03-11T06:03:16.981Z,5.64
2017-03-11T06:04:25.978Z,5.51
2017-03-11T06:05:35.776Z,5.62
2017-03-11T06:06:44.781Z,5.55
2017-03-11T06:07:53.376Z,5.62
2017-03-11T06:09:01.966Z,5.54
2017-03-11T06:10:10.974Z,5.55
2017-03-11T06:11:19.986Z,5.6
2017-03-11T06:12:28.862Z,5.48
2017-03-11T06:13:37.486Z,5.6
2017-03-11T06:14:46.908Z,5.48
2017-03-11T06:15:56.323Z,5.51
2017-03-11T06:17:05.344Z,5.51
2017-03-11T06:18:14.748Z,5.57
2017-03-11T06:19:23.351Z,5.62
2017-03-11T06:20:31.979Z,5.55
2017-03-11T06:21:40.589Z,5.48
2017-03-11T06:22:49.613Z,5.51
2017-03-11T06:23:58.634Z,5.59
2017-03-11T06:25:07.664Z,5.63
2017-03-11T06:26:16.684Z,5.6
2017-03-11T06:27:25.692Z,5.6
2017-03-11T06:28:35.120Z,5.63
2017-03-11T06:29:43.711Z,5.66
2017-03-11T06:30:52.706Z,5.69
2017-03-11T06:32:02.095Z,5.67
2017-03-11T06:33:11.884Z,5.73
2017-03-11T06:34:21.282Z,5.77
2017-03-11T06:35:29.893Z,5.75
2017-03-11T06:36:39.295Z,5.7
2017-03-11T06:37:48.286Z,5.82
2017-03-11T06:38:57.679Z,5.87
2017-03-11T06:40:06.398Z,5.82
2017-03-11T06:41:15.047Z,5.85
2017-03-11T06:42:24.059Z,5.88
2017-03-11T06:43:33.106Z,5.95
2017-03-11T06:44:42.542Z,5.91
2017-03-11T06:45:51.139Z,5.92
2017-03-11T06:46:59.831Z,5.92
2017-03-11T06:48:08.866Z,5.99
2017-03-11T06:49:17.879Z,6.14
2017-03-11T06:50:27.000Z,6.07
2017-03-11T06:51:36.327Z,6.02
2017-03-11T06:52:45.338Z,6.02
2017-03-11T06:53:54.337Z,6.06
2017-03-11T06:55:02.956Z,6.1
2017-03-11T06:56:11.944Z,6.17
2017-03-11T06:57:20.541Z,6.14
2017-03-11T06:58:29.152Z,6.17
2017-03-11T06:59:38.170Z,6.26
2017-03-11T07:00:46.767Z,6.28
2017-03-11T07:01:55.763Z,6.28
2017-03-11T07:03:05.167Z,6.28
2017-03-11T07:04:15.204Z,6.25
2017-03-11T07:05:23.809Z,6.34
2017-03-11T07:06:32.804Z,6.36
2017-03-11T07:07:41.401Z,6.34
2017-03-11T07:08:51.198Z,6.39
2017-03-11T07:10:00.218Z,6.34
2017-03-11T07:11:09.628Z,6.43
2017-03-11T07:12:18.230Z,6.42
2017-03-11T07:13:27.251Z,6.52
2017-03-11T07:14:35.870Z,6.54
2017-03-11T07:15:44.877Z,6.6
2017-03-11T07:16:54.277Z,6.57
2017-03-11T07:18:03.283Z,6.72
2017-03-11T07:19:12.291Z,6.65
2017-03-11T07:20:21.308Z,6.72
2017-03-11T07:21:30.306Z,6.78
2017-03-11T07:22:39.311Z,6.75
2017-03-11T07:23:48.332Z,6.79
2017-03-11T07:24:57.752Z,6.88
2017-03-11T07:26:07.956Z,6.83
2017-03-11T07:27:16.553Z,6.91
2017-03-11T07:28:25.147Z,6.94
2017-03-11T07:29:34.143Z,6.91
2017-03-11T07:30:42.778Z,6.91
2017-03-11T07:31:52.217Z,7.01
2017-03-11T07:33:01.230Z,6.98
2017-03-11T07:34:10.249Z,7.09
2017-03-11T07:35:19.267Z,7.15
2017-03-11T07:36:28.270Z,7.16
2017-03-11T07:37:37.667Z,7.23
2017-03-11T07:38:46.274Z,7.26
2017-03-11T07:39:55.271Z,7.26
2017-03-11T07:41:03.877Z,7.22
2017-03-11T07:42:12.512Z,7.34
2017-03-11T07:43:21.553Z,7.44
2017-03-11T07:44:30.149Z,7.4
2017-03-11T07:45:39.159Z,7.51
2017-03-11T07:46:48.456Z,7.51
2017-03-11T07:47:57.051Z,7.54
2017-03-11T07:49:06.444Z,7.58
2017-03-11T07:50:15.459Z,7.58
2017-03-11T07:51:24.460Z,7.68
2017-03-11T07:52:33.067Z,7.61
2017-03-11T07:53:42.067Z,7.77
2017-03-11T07:54:51.480Z,7.73
2017-03-11T07:56:00.873Z,7.8
2017-03-11T07:57:10.544Z,7.86
2017-03-11T07:58:19.941Z,7.86
2017-03-11T07:59:28.947Z,7.95
2017-03-11T08:00:37.539Z,7.98
2017-03-11T08:01:46.134Z,8.03
2017-03-11T08:02:55.124Z,8.1
2017-03-11T08:04:04.124Z,8.1
2017-03-11T08:05:12.723Z,8.17
2017-03-11T08:06:21.730Z,8.19
2017-03-11T08:07:30.378Z,8.25
2017-03-11T08:08:38.992Z,8.25
2017-03-11T08:09:48.402Z,8.39
2017-03-11T08:10:57.020Z,8.36
2017-03-11T08:12:06.022Z,8.42
2017-03-11T08:13:15.432Z,8.39
2017-03-11T08:14:24.425Z,8.43
2017-03-11T08:15:33.061Z,8.46
2017-03-11T08:16:42.465Z,8.44
2017-03-11T08:17:51.887Z,8.54
2017-03-11T08:19:01.285Z,8.52
2017-03-11T08:20:10.694Z,8.54
2017-03-11T08:21:19.692Z,8.65
2017-03-11T08:22:28.696Z,8.65
2017-03-11T08:23:38.710Z,8.76
2017-03-11T08:24:47.773Z,8.85
2017-03-11T08:25:57.189Z,8.92
2017-03-11T08:27:06.596Z,8.95
2017-03-11T08:28:15.601Z,8.94
2017-03-11T08:29:24.213Z,8.98
2017-03-11T08:30:33.230Z,9.11
2017-03-11T08:31:41.843Z,9
2017-03-11T08:32:50.845Z,9.16
2017-03-11T08:33:59.513Z,9.19
2017-03-11T08:35:08.945Z,9.14
2017-03-11T08:36:17.563Z,9.24
2017-03-11T08:37:26.187Z,9.23
2017-03-11T08:38:34.970Z,9.21
2017-03-11T08:39:43.864Z,9.26
2017-03-11T08:40:53.198Z,9.29
2017-03-11T08:42:02.267Z,9.29
2017-03-11T08:43:10.982Z,9.3
2017-03-11T08:44:20.310Z,9.32
2017-03-11T08:45:29.315Z,9.37
2017-03-11T08:46:38.321Z,9.37
2017-03-11T08:47:46.915Z,9.34
2017-03-11T08:48:55.918Z,9.48
2017-03-11T08:50:04.926Z,9.37
2017-03-11T08:51:13.937Z,9.42
2017-03-11T08:52:22.951Z,9.39
2017-03-11T08:53:31.969Z,9.48
2017-03-11T08:54:41.229Z,9.53
2017-03-11T08:55:50.227Z,9.56
2017-03-11T08:56:59.250Z,9.6
2017-03-11T08:58:07.860Z,9.64
2017-03-11T08:59:17.680Z,9.67
2017-03-11T09:00:27.080Z,9.71
2017-03-11T09:01:35.679Z,9.78
2017-03-11T09:02:44.684Z,9.81
2017-03-11T09:03:53.296Z,9.85
2017-03-11T09:05:02.384Z,9.92
2017-03-11T09:06:11.392Z,9.98
2017-03-11T09:07:20.025Z,10.03
2017-03-11T09:08:28.681Z,10.05
2017-03-11T09:09:38.094Z,10.08
2017-03-11T09:10:47.505Z,10.21
2017-03-11T09:11:56.105Z,10.18
2017-03-11T09:13:04.730Z,10.25
2017-03-11T09:14:13.341Z,10.32
2017-03-11T09:15:22.355Z,10.35
2017-03-11T09:16:30.968Z,10.35
2017-03-11T09:17:39.969Z,10.44
2017-03-11T09:18:48.996Z,10.41
2017-03-11T09:19:57.603Z,10.52
2017-03-11T09:21:06.602Z,10.58
2017-03-11T09:22:15.211Z,10.61
2017-03-11T09:23:24.226Z,10.76
2017-03-11T09:24:33.240Z,10.79
2017-03-11T09:25:41.860Z,10.76
2017-03-11T09:26:50.913Z,10.84
2017-03-11T09:28:00.316Z,10.83
2017-03-11T09:29:09.313Z,10.91
2017-03-11T09:30:18.757Z,10.98
2017-03-11T09:31:27.769Z,10.97
2017-03-11T09:32:36.800Z,11.06
2017-03-11T09:33:45.806Z,10.94
2017-03-11T09:34:54.819Z,10.97
2017-03-11T09:36:03.847Z,11.09
2017-03-11T09:37:12.863Z,11.1
2017-03-11T09:38:21.479Z,11.13
2017-03-11T09:39:30.491Z,11.16
2017-03-11T09:40:39.500Z,11.27
2017-03-11T09:41:48.512Z,11.21
2017-03-11T09:42:57.922Z,11.23
2017-03-11T09:44:07.741Z,11.21
2017-03-11T09:45:16.740Z,11.27
2017-03-11T09:46:25.752Z,11.26
2017-03-11T09:47:34.433Z,11.35
2017-03-11T09:48:43.108Z,11.31
2017-03-11T09:49:52.201Z,11.39
2017-03-11T09:51:01.224Z,11.48
2017-03-11T09:52:10.291Z,11.52
2017-03-11T09:53:19.367Z,11.53
2017-03-11T09:54:29.215Z,11.6
2017-03-11T09:55:38.260Z,11.68
2017-03-11T09:56:47.284Z,11.67
2017-03-11T09:57:56.304Z,11.7
2017-03-11T09:59:05.458Z,11.75
2017-03-11T10:00:14.896Z,11.76
2017-03-11T10:01:24.329Z,11.82
2017-03-11T10:02:33.569Z,11.82
2017-03-11T10:03:42.665Z,11.84
2017-03-11T10:04:51.763Z,11.84
2017-03-11T10:06:01.158Z,11.95
2017-03-11T10:07:09.824Z,11.94
2017-03-11T10:08:19.214Z,12.03
2017-03-11T10:09:28.085Z,12.16
2017-03-11T10:10:37.510Z,12.16
2017-03-11T10:11:46.510Z,12.22
2017-03-11T10:12:55.136Z,12.16
2017-03-11T10:14:04.189Z,12.26
2017-03-11T10:15:13.183Z,12.25
2017-03-11T10:16:26.091Z,12.28
2017-03-11T10:17:35.102Z,12.26
2017-03-11T10:18:44.103Z,12.43
2017-03-11T10:19:53.926Z,12.4
2017-03-11T10:21:03.013Z,12.52
2017-03-11T10:22:12.562Z,12.55
2017-03-11T10:23:21.296Z,12.56
2017-03-11T10:24:30.342Z,12.53
2017-03-11T10:25:39.357Z,12.58
2017-03-11T10:26:48.757Z,12.55
2017-03-11T10:27:57.530Z,12.65
2017-03-11T10:29:06.680Z,12.69
2017-03-11T10:30:15.682Z,12.66
2017-03-11T10:31:24.686Z,12.59
2017-03-11T10:32:34.505Z,12.69
2017-03-11T10:33:44.311Z,12.65
2017-03-11T10:34:53.314Z,12.66
2017-03-11T10:36:02.186Z,12.74
2017-03-11T10:37:11.302Z,12.89
2017-03-11T10:38:20.327Z,12.94
2017-03-11T10:39:28.922Z,12.99
2017-03-11T10:40:37.530Z,13.01
2017-03-11T10:41:46.546Z,12.99
2017-03-11T10:42:55.954Z,13.03
2017-03-11T10:44:04.952Z,13.09
2017-03-11T10:45:13.573Z,13.09
2017-03-11T10:46:22.583Z,13.11
2017-03-11T10:47:31.604Z,13.16
2017-03-11T10:48:40.605Z,13.28
2017-03-11T10:49:50.857Z,13.2
2017-03-11T10:50:59.467Z,13.28
2017-03-11T10:52:08.871Z,13.28
2017-03-11T10:53:17.472Z,13.44
2017-03-11T10:54:26.096Z,13.48
2017-03-11T10:55:34.723Z,13.53
2017-03-11T10:56:43.731Z,13.58
2017-03-11T10:57:53.155Z,13.58
2017-03-11T10:59:02.018Z,13.7
2017-03-11T11:00:10.655Z,13.69
2017-03-11T11:01:20.049Z,13.66
2017-03-11T11:02:28.660Z,13.6
2017-03-11T11:03:38.071Z,13.7
2017-03-11T11:04:47.871Z,13.76
2017-03-11T11:05:56.471Z,13.75
2017-03-11T11:07:05.487Z,13.87
2017-03-11T11:08:14.888Z,13.88
2017-03-11T11:09:24.288Z,13.84
2017-03-11T11:10:32.905Z,13.95
2017-03-11T11:11:41.915Z,14.03
2017-03-11T11:12:50.560Z,13.97
2017-03-11T11:13:59.813Z,14.06
2017-03-11T11:15:09.245Z,13.99
2017-03-11T11:16:17.856Z,14.05
2017-03-11T11:17:26.876Z,14.05
2017-03-11T11:18:35.650Z,14.03
2017-03-11T11:19:44.749Z,14.11
2017-03-11T11:20:53.757Z,14.12
2017-03-11T11:22:03.167Z,14.09
2017-03-11T11:23:12.190Z,14.15
2017-03-11T11:24:21.614Z,14.26
2017-03-11T11:25:30.270Z,14.15
2017-03-11T11:26:39.278Z,14.27
2017-03-11T11:27:48.308Z,14.31
2017-03-11T11:28:56.925Z,14.41
2017-03-11T11:30:05.539Z,14.39
2017-03-11T11:31:14.946Z,14.52
2017-03-11T11:32:23.980Z,14.52
2017-03-11T11:33:32.591Z,14.53
2017-03-11T11:34:41.217Z,14.53
2017-03-11T11:35:50.241Z,14.59
2017-03-11T11:36:58.916Z,14.63
2017-03-11T11:38:07.936Z,14.57
2017-03-11T11:39:16.970Z,14.66
2017-03-11T11:40:25.616Z,14.64
2017-03-11T11:41:34.625Z,14.7
2017-03-11T11:42:43.290Z,14.7
2017-03-11T11:43:52.309Z,14.69
2017-03-11T11:45:01.737Z,14.61
2017-03-11T11:46:11.163Z,14.67
2017-03-11T11:47:20.599Z,14.66
2017-03-11T11:48:30.011Z,14.69
2017-03-11T11:49:38.617Z,14.66
2017-03-11T11:50:48.051Z,14.71
2017-03-11T11:51:57.081Z,14.7
2017-03-11T11:53:05.702Z,14.66
2017-03-11T11:54:15.903Z,14.63
2017-03-11T11:55:24.545Z,14.63
2017-03-11T11:56:33.546Z,14.67
2017-03-11T11:57:42.148Z,14.71
2017-03-11T11:58:50.764Z,14.83
2017-03-11T11:59:59.808Z,14.95
2017-03-11T12:01:08.873Z,15
2017-03-11T12:02:17.483Z,15.04
2017-03-11T12:03:26.510Z,15.1
2017-03-11T12:04:36.164Z,15.04
2017-03-11T12:05:45.580Z,15.19
2017-03-11T12:06:54.981Z,15.08
2017-03-11T12:08:04.005Z,15.13
2017-03-11T12:09:13.027Z,15.1
2017-03-11T12:10:21.647Z,15.04
2017-03-11T12:11:30.294Z,15.13
2017-03-11T12:12:39.753Z,15.04
2017-03-11T12:13:48.847Z,15.16
2017-03-11T12:15:01.300Z,15.1
2017-03-11T12:16:10.344Z,15.15
2017-03-11T12:17:19.810Z,15.04
2017-03-11T12:18:28.872Z,15.18
2017-03-11T12:19:37.900Z,15.13
2017-03-11T12:20:46.923Z,15.15
2017-03-11T12:21:55.545Z,15.1
2017-03-11T12:23:04.969Z,15.16
2017-03-11T12:24:13.978Z,15.13
2017-03-11T12:25:25.976Z,15.12
2017-03-11T12:26:35.072Z,15.13
2017-03-11T12:27:44.082Z,15.16
2017-03-11T12:28:52.745Z,15.19
2017-03-11T12:30:02.222Z,15.18
2017-03-11T12:31:11.269Z,15.16
2017-03-11T12:32:20.386Z,15.18
2017-03-11T12:33:29.460Z,15.16
2017-03-11T12:34:38.490Z,15.26
2017-03-11T12:35:47.193Z,15.31
2017-03-11T12:36:56.356Z,15.47
2017-03-11T12:38:05.625Z,15.37
2017-03-11T12:39:14.698Z,15.37
2017-03-11T12:40:23.748Z,15.4
2017-03-11T12:41:33.190Z,15.4
2017-03-11T12:42:42.618Z,15.45
2017-03-11T12:43:51.955Z,15.43
2017-03-11T12:45:01.171Z,15.44
2017-03-11T12:46:09.840Z,15.49
2017-03-11T12:47:18.883Z,15.47
2017-03-11T12:48:27.493Z,15.47
2017-03-11T12:49:36.557Z,15.55
2017-03-11T12:50:45.638Z,15.63
2017-03-11T12:51:54.740Z,15.62
2017-03-11T12:53:03.391Z,15.65
2017-03-11T12:54:12.132Z,15.63
2017-03-11T12:55:21.140Z,15.68
2017-03-11T12:56:29.789Z,15.65
2017-03-11T12:57:38.791Z,15.77
2017-03-11T12:58:47.819Z,15.74
2017-03-11T12:59:57.644Z,15.81
2017-03-11T13:01:06.263Z,15.75
2017-03-11T13:02:15.264Z,15.81
2017-03-11T13:03:23.873Z,15.78
2017-03-11T13:04:32.884Z,15.78
2017-03-11T13:05:41.891Z,15.73
2017-03-11T13:06:51.757Z,15.74
2017-03-11T13:08:00.365Z,15.84
2017-03-11T13:09:09.391Z,15.8
2017-03-11T13:10:18.043Z,15.83
2017-03-11T13:11:27.092Z,15.8
2017-03-11T13:12:36.094Z,15.75
2017-03-11T13:13:44.737Z,15.83
2017-03-11T13:14:54.570Z,15.81
2017-03-11T13:16:04.318Z,15.84
2017-03-11T13:17:13.612Z,15.8
2017-03-11T13:18:22.619Z,15.65
2017-03-11T13:19:31.621Z,15.73
2017-03-11T13:20:40.254Z,15.83
2017-03-11T13:21:49.265Z,15.67
2017-03-11T13:22:57.882Z,15.77
2017-03-11T13:24:07.325Z,15.84
2017-03-11T13:25:15.929Z,15.75
2017-03-11T13:26:25.742Z,15.68
2017-03-11T13:27:34.751Z,15.62
2017-03-11T13:28:44.800Z,15.68
2017-03-11T13:29:53.805Z,15.65
2017-03-11T13:31:02.806Z,15.68
2017-03-11T13:32:11.805Z,15.55
2017-03-11T13:33:21.221Z,15.56
2017-03-11T13:34:29.837Z,15.59
2017-03-11T13:35:38.844Z,15.65
2017-03-11T13:36:48.266Z,15.74
2017-03-11T13:37:57.294Z,15.78
2017-03-11T13:39:05.901Z,15.74
2017-03-11T13:40:14.531Z,15.7
2017-03-11T13:41:23.149Z,15.73
2017-03-11T13:42:31.803Z,15.78
2017-03-11T13:43:40.426Z,15.8
2017-03-11T13:44:49.047Z,15.78
2017-03-11T13:45:57.648Z,15.8
2017-03-11T13:47:06.659Z,15.75
2017-03-11T13:48:15.659Z,15.77
2017-03-11T13:49:24.987Z,15.73
2017-03-11T13:50:34.742Z,15.74
2017-03-11T13:51:44.687Z,15.77
2017-03-11T13:52:53.298Z,15.75
2017-03-11T13:54:02.704Z,15.75
2017-03-11T13:55:11.316Z,15.78
2017-03-11T13:56:23.876Z,15.74
2017-03-11T13:57:33.120Z,15.74
2017-03-11T13:58:42.532Z,15.67
2017-03-11T13:59:51.138Z,15.68
2017-03-11T14:00:59.744Z,15.68
2017-03-11T14:02:09.549Z,15.68
2017-03-11T14:03:18.947Z,15.7
2017-03-11T14:04:28.749Z,15.65
2017-03-11T14:05:37.815Z,15.65
2017-03-11T14:06:46.425Z,15.7
2017-03-11T14:07:55.425Z,15.67
2017-03-11T14:09:04.418Z,15.78
2017-03-11T14:10:14.226Z,15.67
2017-03-11T14:11:23.669Z,15.74
2017-03-11T14:12:32.689Z,15.74
2017-03-11T14:13:42.105Z,15.59
2017-03-11T14:14:51.534Z,15.6
2017-03-11T14:16:00.570Z,15.65
2017-03-11T14:17:09.573Z,15.65
2017-03-11T14:18:19.013Z,15.56
2017-03-11T14:19:28.049Z,15.58
2017-03-11T14:20:36.701Z,15.53
2017-03-11T14:21:46.099Z,15.53
2017-03-11T14:22:55.113Z,15.52
2017-03-11T14:24:04.546Z,15.55
2017-03-11T14:25:14.360Z,15.45
2017-03-11T14:26:22.961Z,15.47
2017-03-11T14:27:31.972Z,15.51
2017-03-11T14:28:40.970Z,15.55
2017-03-11T14:29:49.596Z,15.47
2017-03-11T14:30:59.661Z,15.44
2017-03-11T14:32:08.674Z,15.51
2017-03-11T14:33:17.278Z,15.37
2017-03-11T14:34:26.698Z,15.45
2017-03-11T14:35:35.709Z,15.47
2017-03-11T14:36:44.730Z,15.38
2017-03-11T14:37:53.745Z,15.4
2017-03-11T14:39:02.352Z,15.41
2017-03-11T14:40:10.964Z,15.33
2017-03-11T14:41:20.681Z,15.44
2017-03-11T14:42:30.081Z,15.27
2017-03-11T14:43:39.509Z,15.41
2017-03-11T14:44:48.518Z,15.33
2017-03-11T14:45:57.525Z,15.23
2017-03-11T14:47:06.939Z,15.22
2017-03-11T14:48:16.353Z,15.22
2017-03-11T14:49:25.354Z,15.18
2017-03-11T14:50:34.371Z,15.19
2017-03-11T14:51:44.189Z,15.16
2017-03-11T14:52:53.227Z,15.07
2017-03-11T14:54:01.842Z,15.07
2017-03-11T14:55:11.278Z,15.12
2017-03-11T14:56:20.439Z,15.02
2017-03-11T14:57:29.079Z,15.04
2017-03-11T14:58:38.485Z,15.01
2017-03-11T14:59:47.889Z,15.01
2017-03-11T15:00:57.334Z,15
2017-03-11T15:02:07.184Z,14.9
2017-03-11T15:03:16.846Z,15.01
2017-03-11T15:04:25.451Z,14.97
2017-03-11T15:05:34.466Z,15.01
2017-03-11T15:06:43.163Z,14.9
2017-03-11T15:07:51.787Z,14.86
2017-03-11T15:09:00.555Z,14.87
2017-03-11T15:10:09.176Z,14.85
2017-03-11T15:11:18.581Z,14.86